Time;durP1;ratioP1;P1;durP2;ratioP2;P2;SDS_P1;SDS_P2;PMS_P1;PMS_P2;Temp;Humidity;BMP_temperature;BMP_pressure;BME280_temperature;BME280_humidity;BME280_pressure;Samples;Min_cycle;Max_cycle;Signal;HPM_P1;HPM_P2
2022/04/12 00:01:35;;;;;;;2.88;2.63;;;6.30;69.70;;;;;;5073421;28;20270;-87
2022/04/12 00:04:04;;;;;;;2.78;2.53;;;6.30;70.60;;;;;;5073274;28;20263;-87
2022/04/12 00:06:33;;;;;;;3.80;3.25;;;6.30;71.20;;;;;;5073708;28;20270;-87
2022/04/12 00:09:01;;;;;;;3.17;2.85;;;6.30;71.40;;;;;;5073360;28;20232;-88
2022/04/12 00:11:31;;;;;;;4.20;2.50;;;6.30;71.90;;;;;;5073143;28;20225;-87
2022/04/12 00:14:00;;;;;;;3.05;2.75;;;6.20;71.80;;;;;;5073033;28;20241;-87
2022/04/12 00:16:28;;;;;;;2.58;2.38;;;6.20;71.80;;;;;;5072754;28;20357;-88
2022/04/12 00:19:04;;;;;;;2.78;2.58;;;6.30;72.40;;;;;;5072965;28;20289;-87
2022/04/12 00:21:34;;;;;;;3.30;2.65;;;6.30;72.00;;;;;;5072693;28;20205;-87
2022/04/12 00:24:04;;;;;;;5.32;3.38;;;6.30;70.90;;;;;;5073306;28;20224;-87
2022/04/12 00:26:35;;;;;;;3.50;3.28;;;6.40;69.80;;;;;;5072942;28;20197;-87
2022/04/12 00:29:03;;;;;;;4.32;3.65;;;6.40;70.80;;;;;;5073469;28;20223;-87
2022/04/12 00:31:32;;;;;;;3.60;3.17;;;6.30;71.90;;;;;;5072739;28;20235;-87
2022/04/12 00:34:01;;;;;;;3.38;2.80;;;6.30;71.80;;;;;;5072268;28;20256;-87
2022/04/12 00:36:30;;;;;;;2.80;2.60;;;6.30;72.40;;;;;;5073027;28;20290;-88
2022/04/12 00:38:59;;;;;;;9.15;3.40;;;6.30;72.90;;;;;;5073274;28;20239;-88
2022/04/12 00:41:35;;;;;;;3.53;2.58;;;6.30;73.20;;;;;;5072629;28;20224;-88
2022/04/12 00:44:05;;;;;;;4.07;2.70;;;6.20;72.40;;;;;;5073146;28;20312;-88
2022/04/12 00:46:34;;;;;;;2.28;2.17;;;6.20;72.20;;;;;;5072537;28;20231;-87
2022/04/12 00:49:02;;;;;;;2.83;2.63;;;6.10;73.30;;;;;;5072415;28;20205;-87
2022/04/12 00:51:31;;;;;;;2.80;2.60;;;6.10;73.80;;;;;;5071538;28;20312;-88
2022/04/12 00:54:00;;;;;;;5.45;2.75;;;6.10;74.50;;;;;;5072522;28;20221;-88
2022/04/12 00:56:28;;;;;;;5.85;3.35;;;6.00;75.70;;;;;;5072644;28;20213;-88
2022/04/12 00:58:57;;;;;;;3.67;3.38;;;6.00;80.90;;;;;;5072508;28;20200;-88
2022/04/12 01:01:27;;;;;;;3.65;3.35;;;6.00;82.10;;;;;;5072528;28;20293;-88
2022/04/12 01:03:55;;;;;;;3.38;3.08;;;6.00;83.10;;;;;;5072667;28;20220;-88
2022/04/12 01:06:24;;;;;;;3.17;2.75;;;6.00;84.30;;;;;;5072703;28;20239;-88
2022/04/12 01:08:53;;;;;;;3.08;2.40;;;6.00;86.30;;;;;;5072550;28;20279;-88
2022/04/12 01:11:21;;;;;;;2.90;2.70;;;6.00;88.00;;;;;;5071989;28;20311;-88
2022/04/12 01:13:50;;;;;;;5.28;3.13;;;5.90;87.50;;;;;;5071781;28;20251;-88
2022/04/12 01:16:18;;;;;;;6.32;3.55;;;5.90;88.00;;;;;;5072427;28;20239;-88
2022/04/12 01:18:48;;;;;;;4.40;2.92;;;5.80;89.20;;;;;;5071887;28;20208;-88
2022/04/12 01:21:16;;;;;;;3.33;3.03;;;5.80;89.40;;;;;;5072361;28;20229;-87
2022/04/12 01:23:55;;;;;;;3.80;2.63;;;5.80;90.40;;;;;;5071904;28;20237;-88
2022/04/12 01:26:23;;;;;;;5.68;3.42;;;5.70;90.30;;;;;;5072499;28;20228;-88
2022/04/12 01:28:52;;;;;;;4.57;3.28;;;5.70;90.00;;;;;;5071879;28;20295;-88
2022/04/12 01:31:20;;;;;;;3.58;3.28;;;5.60;90.30;;;;;;5072020;28;20293;-88
2022/04/12 01:33:48;;;;;;;3.85;3.42;;;5.60;91.00;;;;;;5071627;28;20229;-88
2022/04/12 01:36:17;;;;;;;2.92;2.40;;;5.60;91.60;;;;;;5072510;28;20292;-88
2022/04/12 01:38:45;;;;;;;6.60;2.75;;;5.50;92.40;;;;;;5072443;28;20220;-88
2022/04/12 01:41:15;;;;;;;3.13;2.85;;;5.50;92.70;;;;;;5071591;28;20190;-85
2022/04/12 01:43:43;;;;;;;3.30;3.00;;;5.50;91.90;;;;;;5072206;28;20243;-86
2022/04/12 01:46:12;;;;;;;2.47;2.28;;;5.50;92.20;;;;;;5075929;28;20228;-86
2022/04/12 01:48:40;;;;;;;3.10;2.80;;;5.50;92.50;;;;;;5076460;28;20201;-85
2022/04/12 01:51:09;;;;;;;3.75;3.33;;;5.50;93.40;;;;;;5075544;28;20300;-85
2022/04/12 01:53:39;;;;;;;2.92;2.63;;;5.50;94.00;;;;;;5075976;28;20229;-85
2022/04/12 01:56:07;;;;;;;4.80;3.10;;;5.40;94.30;;;;;;5075827;28;20239;-86
2022/04/12 01:58:38;;;;;;;3.45;3.00;;;5.40;95.20;;;;;;5076129;28;20201;-85
2022/04/12 02:01:06;;;;;;;16.92;3.13;;;5.50;95.70;;;;;;5075730;28;20204;-85
2022/04/12 02:03:35;;;;;;;2.67;2.47;;;5.50;95.90;;;;;;5075613;28;20228;-85
2022/04/12 02:06:05;;;;;;;4.22;3.42;;;5.40;96.90;;;;;;5075658;28;20231;-85
2022/04/12 02:08:33;;;;;;;3.20;2.85;;;5.40;97.00;;;;;;5075564;28;20220;-85
2022/04/12 02:11:02;;;;;;;3.40;3.10;;;5.50;96.40;;;;;;5075422;28;20311;-85
2022/04/12 02:13:30;;;;;;;3.38;3.08;;;5.40;96.80;;;;;;5075845;28;20209;-86
2022/04/12 02:16:00;;;;;;;5.15;3.13;;;5.40;96.90;;;;;;5075492;28;20201;-86
2022/04/12 02:18:29;;;;;;;5.72;2.83;;;5.40;97.20;;;;;;5074674;28;20205;-85
2022/04/12 02:20:57;;;;;;;3.75;3.20;;;5.40;97.60;;;;;;5075484;28;20201;-85
2022/04/12 02:23:25;;;;;;;3.60;3.15;;;5.30;97.60;;;;;;5075279;28;20213;-85
2022/04/12 02:25:54;;;;;;;3.30;3.00;;;5.30;98.60;;;;;;5075331;28;20292;-88
2022/04/12 02:28:22;;;;;;;3.38;3.00;;;5.30;98.10;;;;;;5074740;28;20223;-89
2022/04/12 02:30:50;;;;;;;4.15;3.47;;;5.20;98.40;;;;;;5075243;28;20208;-85
2022/04/12 02:33:20;;;;;;;3.03;2.67;;;5.20;99.20;;;;;;5075026;28;20224;-86
2022/04/12 02:35:49;;;;;;;2.78;2.58;;;5.20;99.70;;;;;;5075447;28;20205;-86
2022/04/12 02:38:17;;;;;;;3.47;3.13;;;5.20;99.70;;;;;;5074592;28;20232;-86
2022/04/12 02:40:46;;;;;;;4.43;3.83;;;5.10;99.90;;;;;;5074720;28;20212;-85
2022/04/12 02:43:14;;;;;;;3.47;3.08;;;5.10;99.90;;;;;;5075008;28;20224;-86
2022/04/12 02:45:42;;;;;;;3.33;2.80;;;5.10;99.90;;;;;;5074921;28;20265;-86
2022/04/12 02:48:11;;;;;;;4.20;3.22;;;5.10;99.90;;;;;;5074588;28;20223;-86
2022/04/12 02:50:41;;;;;;;3.05;2.80;;;5.10;99.90;;;;;;5074861;28;20268;-86
2022/04/12 02:53:09;;;;;;;3.13;2.90;;;5.10;99.90;;;;;;5075048;28;20229;-86
2022/04/12 02:55:38;;;;;;;3.40;3.00;;;5.00;99.90;;;;;;5074349;28;20218;-86
2022/04/12 02:58:06;;;;;;;3.72;3.42;;;5.00;99.90;;;;;;5074814;28;20296;-86
2022/04/12 03:00:35;;;;;;;3.92;2.97;;;5.00;99.90;;;;;;5075068;28;20288;-86
2022/04/12 03:03:03;;;;;;;3.65;3.35;;;5.00;99.90;;;;;;5074975;28;20264;-86
2022/04/12 03:05:32;;;;;;;3.13;2.88;;;4.90;99.90;;;;;;5074294;28;20201;-86
2022/04/12 03:08:01;;;;;;;4.55;3.13;;;4.90;99.90;;;;;;5074921;28;20256;-85
2022/04/12 03:10:30;;;;;;;3.47;3.17;;;4.90;99.90;;;;;;5074054;28;20205;-85
2022/04/12 03:12:58;;;;;;;3.13;2.85;;;4.90;99.90;;;;;;5074481;28;20275;-86
2022/04/12 03:15:27;;;;;;;2.90;2.70;;;4.90;99.90;;;;;;5074243;28;20244;-85
2022/04/12 03:17:55;;;;;;;2.78;2.58;;;4.90;99.90;;;;;;5074193;28;20233;-86
2022/04/12 03:20:24;;;;;;;4.95;3.33;;;4.80;99.90;;;;;;5074420;28;20296;-86
2022/04/12 03:22:52;;;;;;;3.85;3.45;;;4.80;99.90;;;;;;5074208;28;20260;-85
2022/04/12 03:25:22;;;;;;;4.25;3.15;;;4.80;99.90;;;;;;5074067;28;20288;-85
2022/04/12 03:27:50;;;;;;;5.72;3.63;;;4.80;99.90;;;;;;5073922;28;20252;-85
2022/04/12 03:30:19;;;;;;;7.45;3.35;;;4.80;99.90;;;;;;5074026;28;20296;-86
2022/04/12 03:32:47;;;;;;;3.40;3.13;;;4.80;99.90;;;;;;5073502;28;20239;-85
2022/04/12 03:35:15;;;;;;;9.60;3.78;;;4.80;99.90;;;;;;5074303;28;20297;-86
2022/04/12 03:37:44;;;;;;;9.43;4.35;;;4.80;99.90;;;;;;5073968;28;20327;-85
2022/04/12 03:40:13;;;;;;;3.00;2.80;;;4.80;99.90;;;;;;5074162;28;20251;-86
2022/04/12 03:42:43;;;;;;;11.00;8.10;;;4.80;99.90;;;;;;5073424;28;20217;-86
2022/04/12 03:45:11;;;;;;;9.13;6.85;;;4.80;99.90;;;;;;5074020;28;20224;-86
2022/04/12 03:47:40;;;;;;;7.72;6.95;;;4.70;99.90;;;;;;5070536;28;20201;-85
2022/04/12 03:50:09;;;;;;;5.82;5.05;;;4.70;99.90;;;;;;5073871;28;20229;-86
2022/04/12 03:52:37;;;;;;;13.70;9.73;;;4.70;99.90;;;;;;5072957;28;20262;-86
2022/04/12 03:55:10;;;;;;;6.47;4.72;;;4.70;99.90;;;;;;5073672;28;20201;-86
2022/04/12 03:57:39;;;;;;;3.80;3.45;;;4.70;99.90;;;;;;5053546;28;20237;-86
2022/04/12 04:00:10;;;;;;;4.65;4.00;;;4.60;99.90;;;;;;5057224;28;20201;-85
2022/04/12 04:02:39;;;;;;;5.50;4.35;;;4.60;99.90;;;;;;5073390;28;20316;-85
2022/04/12 04:05:08;;;;;;;4.85;4.32;;;4.60;99.90;;;;;;5073552;28;20235;-85
2022/04/12 04:07:37;;;;;;;5.18;4.68;;;4.60;99.90;;;;;;5072390;28;20229;-85
2022/04/12 04:10:06;;;;;;;6.70;4.75;;;4.60;99.90;;;;;;5072972;28;20205;-85
2022/04/12 04:12:34;;;;;;;7.47;5.07;;;4.60;99.90;;;;;;5073107;28;20229;-86
2022/04/12 04:15:03;;;;;;;4.78;4.13;;;4.60;99.90;;;;;;5073179;28;20201;-86
2022/04/12 04:17:33;;;;;;;5.43;4.25;;;4.50;99.90;;;;;;5073159;28;20205;-86
2022/04/12 04:20:02;;;;;;;8.43;3.80;;;4.50;99.90;;;;;;5073391;28;20268;-86
2022/04/12 04:22:30;;;;;;;5.70;4.78;;;4.50;99.90;;;;;;5072474;28;20277;-86
2022/04/12 04:24:59;;;;;;;6.45;4.88;;;4.50;99.90;;;;;;5073247;28;20201;-85
2022/04/12 04:27:34;;;;;;;5.00;4.55;;;4.50;99.90;;;;;;5072615;28;20207;-86
2022/04/12 04:30:04;;;;;;;7.53;4.35;;;4.50;99.90;;;;;;5072978;28;20246;-86
2022/04/12 04:32:34;;;;;;;4.75;4.30;;;4.50;99.90;;;;;;5072569;28;20220;-86
2022/04/12 04:35:03;;;;;;;6.15;4.32;;;4.50;99.90;;;;;;5072892;28;20251;-86
2022/04/12 04:37:32;;;;;;;5.65;4.93;;;4.50;99.90;;;;;;5072417;28;20212;-85
2022/04/12 04:40:00;;;;;;;7.07;4.60;;;4.50;99.90;;;;;;5072753;28;20208;-85
2022/04/12 04:42:29;;;;;;;4.35;3.95;;;4.60;99.90;;;;;;5072409;28;20217;-85
2022/04/12 04:44:57;;;;;;;4.75;4.35;;;4.60;99.90;;;;;;5072502;28;20204;-86
2022/04/12 04:47:26;;;;;;;5.57;3.80;;;4.70;99.90;;;;;;5072836;28;20197;-86
2022/04/12 04:49:56;;;;;;;5.45;4.32;;;4.70;99.90;;;;;;5072921;28;20205;-86
2022/04/12 04:52:24;;;;;;;5.18;4.05;;;4.70;99.90;;;;;;5072010;28;20229;-86
2022/04/12 04:54:52;;;;;;;6.70;5.10;;;4.70;99.90;;;;;;5072491;28;20232;-86
2022/04/12 04:57:21;;;;;;;5.22;4.72;;;4.80;99.90;;;;;;5072697;28;20228;-86
2022/04/12 04:59:49;;;;;;;5.95;4.47;;;4.90;99.90;;;;;;5072345;28;20213;-86
2022/04/12 05:02:17;;;;;;;4.72;4.25;;;4.90;99.90;;;;;;5072393;28;20260;-86
2022/04/12 05:04:46;;;;;;;6.43;4.82;;;4.90;99.90;;;;;;5072055;28;20233;-85
2022/04/12 05:07:25;;;;;;;5.53;4.68;;;5.00;99.90;;;;;;5072346;28;20209;-85
2022/04/12 05:09:54;;;;;;;8.25;4.82;;;5.10;99.90;;;;;;5072561;28;20220;-85
2022/04/12 05:12:22;;;;;;;5.63;4.40;;;5.20;99.90;;;;;;5071012;28;20307;-85
2022/04/12 05:14:50;;;;;;;5.13;3.97;;;5.20;99.90;;;;;;5072592;28;20266;-86
2022/04/12 05:17:29;;;;;;;4.50;4.10;;;5.30;99.90;;;;;;5069642;28;20217;-85
2022/04/12 05:19:58;;;;;;;5.60;4.15;;;5.40;99.90;;;;;;5068078;28;20204;-86
2022/04/12 05:22:28;;;;;;;5.10;4.30;;;5.40;99.90;;;;;;5067862;28;20304;-85
2022/04/12 05:24:56;;;;;;;4.75;4.35;;;5.40;99.90;;;;;;5069984;28;20229;-86
2022/04/12 05:27:24;;;;;;;5.20;3.67;;;5.50;99.90;;;;;;5070809;28;20278;-86
2022/04/12 05:29:53;;;;;;;5.78;4.68;;;5.50;99.90;;;;;;5069365;28;20224;-86
2022/04/12 05:32:21;;;;;;;5.88;4.97;;;5.50;99.90;;;;;;5071950;28;20217;-86
2022/04/12 05:34:50;;;;;;;5.72;4.68;;;5.60;99.90;;;;;;5072405;28;20277;-85
2022/04/12 05:37:18;;;;;;;9.38;5.30;;;5.60;99.90;;;;;;5072174;28;20259;-86
2022/04/12 05:39:48;;;;;;;8.38;4.38;;;5.70;99.90;;;;;;5070154;28;20217;-85
2022/04/12 05:42:17;;;;;;;5.97;4.53;;;5.70;99.90;;;;;;5063104;28;20243;-87
2022/04/12 05:44:46;;;;;;;7.75;4.85;;;5.70;99.90;;;;;;5056127;28;20214;-86
2022/04/12 05:47:15;;;;;;;4.30;3.90;;;5.70;99.90;;;;;;5059875;28;20201;-86
2022/04/12 05:49:43;;;;;;;5.28;4.78;;;5.80;99.90;;;;;;5068295;28;20204;-86
2022/04/12 05:52:11;;;;;;;4.70;4.30;;;5.80;99.90;;;;;;5065943;28;20240;-86
2022/04/12 05:54:40;;;;;;;8.57;4.55;;;5.80;99.90;;;;;;5067994;28;20225;-86
2022/04/12 05:57:10;;;;;;;6.32;4.85;;;5.90;99.90;;;;;;5066017;28;20197;-86
2022/04/12 05:59:38;;;;;;;5.10;4.38;;;5.90;99.90;;;;;;5051730;28;20214;-87
2022/04/12 06:02:07;;;;;;;8.40;5.35;;;6.00;99.40;;;;;;5051535;28;20225;-87
2022/04/12 06:04:35;;;;;;;7.18;5.53;;;6.00;99.80;;;;;;5052269;28;20209;-87
2022/04/12 06:07:04;;;;;;;15.07;5.25;;;6.10;99.20;;;;;;5071441;28;20240;-87
2022/04/12 06:09:33;;;;;;;16.92;5.40;;;6.20;99.40;;;;;;5065491;28;20205;-87
2022/04/12 06:12:01;;;;;;;8.02;5.72;;;6.20;98.40;;;;;;5069547;28;20194;-87
2022/04/12 06:14:31;;;;;;;10.27;5.57;;;6.30;98.70;;;;;;5067287;28;20280;-87
2022/04/12 06:16:59;;;;;;;5.45;4.45;;;6.30;97.80;;;;;;5071690;28;20305;-87
2022/04/12 06:19:29;;;;;;;5.72;5.15;;;6.40;98.00;;;;;;5071569;28;20228;-87
2022/04/12 06:21:58;;;;;;;5.43;4.65;;;6.50;98.10;;;;;;5071495;28;20301;-87
2022/04/12 06:24:26;;;;;;;5.35;4.47;;;6.60;99.10;;;;;;5071893;28;20197;-85
2022/04/12 06:26:55;;;;;;;4.65;4.25;;;6.60;98.10;;;;;;5071752;28;20455;-86
2022/04/12 06:29:24;;;;;;;6.50;4.88;;;6.70;98.30;;;;;;5071590;28;20206;-86
2022/04/12 06:31:54;;;;;;;4.03;3.70;;;6.70;96.50;;;;;;5073415;28;20255;-86
2022/04/12 06:34:22;;;;;;;7.20;5.25;;;6.80;96.40;;;;;;5075318;28;20282;-85
2022/04/12 06:36:51;;;;;;;5.22;4.45;;;6.80;96.30;;;;;;5074532;28;20193;-85
2022/04/12 06:39:19;;;;;;;6.60;4.22;;;6.80;96.70;;;;;;5074223;28;20262;-86
2022/04/12 06:41:47;;;;;;;6.57;4.65;;;6.90;96.10;;;;;;5074735;28;20240;-85
2022/04/12 06:44:15;;;;;;;5.93;4.55;;;7.00;96.60;;;;;;5074842;28;20247;-85
2022/04/12 06:46:44;;;;;;;5.53;4.78;;;7.00;95.10;;;;;;5074369;28;20216;-84
2022/04/12 06:49:14;;;;;;;4.13;3.72;;;7.10;95.30;;;;;;5074831;28;20236;-85
2022/04/12 06:51:42;;;;;;;4.55;4.15;;;7.10;95.10;;;;;;5074504;28;20246;-85
2022/04/12 06:54:10;;;;;;;5.05;4.55;;;7.20;95.10;;;;;;5074009;28;20244;-85
2022/04/12 06:56:39;;;;;;;4.53;4.10;;;7.30;95.60;;;;;;5073785;28;20219;-85
2022/04/12 06:59:07;;;;;;;8.55;5.60;;;7.40;95.30;;;;;;5074207;28;20205;-85
2022/04/12 07:01:36;;;;;;;5.72;4.43;;;7.40;94.40;;;;;;5074263;28;20205;-84
2022/04/12 07:04:04;;;;;;;5.30;4.78;;;7.50;95.30;;;;;;5074350;28;20260;-85
2022/04/12 07:06:34;;;;;;;4.75;4.35;;;7.50;94.10;;;;;;5074400;28;20201;-85
2022/04/12 07:09:05;;;;;;;4.72;4.32;;;7.60;94.10;;;;;;5074260;28;20221;-85
2022/04/12 07:11:34;;;;;;;4.95;4.32;;;7.60;93.90;;;;;;5074498;28;20194;-84
2022/04/12 07:14:02;;;;;;;4.75;4.32;;;7.70;94.50;;;;;;5074104;28;20217;-84
2022/04/12 07:16:30;;;;;;;5.43;4.90;;;7.70;94.00;;;;;;5074193;28;20229;-84
2022/04/12 07:18:59;;;;;;;6.93;5.18;;;7.80;94.20;;;;;;5074697;28;20216;-85
2022/04/12 07:21:29;;;;;;;7.82;5.45;;;7.80;93.80;;;;;;5074088;28;20193;-85
2022/04/12 07:24:00;;;;;;;5.40;4.47;;;7.90;93.20;;;;;;5074497;28;20249;-84
2022/04/12 07:26:29;;;;;;;5.82;5.22;;;7.90;93.20;;;;;;5074179;28;20298;-85
2022/04/12 07:28:57;;;;;;;4.97;4.20;;;7.90;93.70;;;;;;5073845;28;20213;-85
2022/04/12 07:31:26;;;;;;;5.72;5.10;;;7.90;93.80;;;;;;5073768;28;20266;-84
2022/04/12 07:33:55;;;;;;;8.50;5.40;;;8.00;93.80;;;;;;5073882;28;20298;-85
2022/04/12 07:36:23;;;;;;;5.53;4.90;;;8.10;94.10;;;;;;5073851;28;20251;-84
2022/04/12 07:38:52;;;;;;;5.13;4.57;;;8.20;93.80;;;;;;5073896;28;20209;-84
2022/04/12 07:41:22;;;;;;;5.15;4.40;;;8.30;93.90;;;;;;5073505;28;20239;-84
2022/04/12 07:43:52;;;;;;;7.82;4.90;;;8.40;94.30;;;;;;5073575;28;20225;-84
2022/04/12 07:46:20;;;;;;;4.38;3.97;;;8.60;94.40;;;;;;5073809;28;20251;-85
2022/04/12 07:48:50;;;;;;;14.00;5.22;;;8.80;94.30;;;;;;5073839;28;20209;-85
2022/04/12 07:51:21;;;;;;;5.28;4.78;;;9.00;94.40;;;;;;5073018;28;20228;-86
2022/04/12 07:53:49;;;;;;;6.18;4.55;;;9.10;93.30;;;;;;5074140;28;20229;-85
2022/04/12 07:56:18;;;;;;;5.80;4.75;;;9.20;93.00;;;;;;5074999;28;20197;-84
2022/04/12 07:58:50;;;;;;;8.23;4.57;;;9.40;94.40;;;;;;5074636;28;20205;-85
2022/04/12 08:01:19;;;;;;;4.75;4.25;;;9.50;93.50;;;;;;5074016;28;20296;-85
2022/04/12 08:03:48;;;;;;;11.32;5.35;;;9.70;92.60;;;;;;5074396;28;20229;-85
2022/04/12 08:06:16;;;;;;;5.07;4.57;;;9.90;92.20;;;;;;5074136;28;20227;-86
2022/04/12 08:08:45;;;;;;;4.78;4.18;;;10.20;91.70;;;;;;5074628;28;20201;-85
2022/04/12 08:11:13;;;;;;;4.90;4.03;;;10.40;91.00;;;;;;5074134;28;20235;-85
2022/04/12 08:13:42;;;;;;;3.95;3.65;;;10.80;90.70;;;;;;5074449;28;20248;-85
2022/04/12 08:16:15;;;;;;;4.45;4.05;;;11.50;89.00;;;;;;5073771;28;20225;-85
2022/04/12 08:18:47;;;;;;;5.10;4.03;;;12.30;86.00;;;;;;5073954;28;20219;-85
2022/04/12 08:21:15;;;;;;;5.55;4.00;;;13.50;83.50;;;;;;5073830;28;20308;-85
2022/04/12 08:23:43;;;;;;;5.07;4.47;;;15.00;77.30;;;;;;5074270;28;20248;-85
2022/04/12 08:26:13;;;;;;;4.43;4.03;;;16.30;71.60;;;;;;5073989;28;20297;-85
2022/04/12 08:28:42;;;;;;;5.80;4.70;;;17.90;67.70;;;;;;5073661;28;20209;-86
2022/04/12 08:31:12;;;;;;;6.57;4.97;;;19.20;61.70;;;;;;5073774;28;20254;-83
2022/04/12 08:33:41;;;;;;;5.43;4.30;;;19.60;57.60;;;;;;5073779;28;20225;-83
2022/04/12 08:36:09;;;;;;;5.18;4.68;;;19.80;57.80;;;;;;5073040;28;20312;-82
2022/04/12 08:38:38;;;;;;;4.50;4.07;;;20.70;57.30;;;;;;5073841;28;20223;-83
2022/04/12 08:41:07;;;;;;;5.53;4.70;;;21.60;53.30;;;;;;5073536;28;20213;-83
2022/04/12 08:43:38;;;;;;;5.22;4.72;;;21.70;51.30;;;;;;5073905;28;20247;-84
2022/04/12 08:46:07;;;;;;;4.72;4.22;;;21.80;50.20;;;;;;5073908;28;20280;-83
2022/04/12 08:48:38;;;;;;;5.13;4.22;;;21.70;50.80;;;;;;5073513;28;20264;-83
2022/04/12 08:51:07;;;;;;;6.63;4.70;;;21.80;49.80;;;;;;5072923;28;20205;-83
2022/04/12 08:53:41;;;;;;;4.82;4.43;;;21.50;49.40;;;;;;5073122;28;20274;-82
2022/04/12 08:56:09;;;;;;;6.15;5.55;;;21.90;51.60;;;;;;5063826;28;20308;-82
2022/04/12 08:58:38;;;;;;;8.02;4.72;;;21.90;49.70;;;;;;5053489;28;20256;-82
2022/04/12 09:01:26;;;;;;;9.68;3.67;;;21.70;47.90;;;;;;5053430;28;20198;-84
2022/04/12 09:03:56;;;;;;;6.53;5.30;;;21.20;48.20;;;;;;5053400;28;20230;-84
2022/04/12 09:06:24;;;;;;;7.15;5.40;;;21.00;49.00;;;;;;5052996;28;20198;-84
2022/04/12 09:08:53;;;;;;;5.80;4.60;;;21.70;49.30;;;;;;5053025;28;20264;-84
2022/04/12 09:11:22;;;;;;;5.72;5.13;;;22.90;48.50;;;;;;5053208;28;20300;-84
2022/04/12 09:14:01;;;;;;;5.95;5.03;;;23.00;47.40;;;;;;5053514;28;20308;-84
2022/04/12 09:16:30;;;;;;;12.02;5.60;;;23.10;48.40;;;;;;5053125;28;20224;-84
2022/04/12 09:19:00;;;;;;;4.68;4.18;;;22.80;47.00;;;;;;5053660;28;20206;-84
2022/04/12 09:21:30;;;;;;;4.53;4.13;;;22.50;46.00;;;;;;5052739;28;20256;-84
2022/04/12 09:24:01;;;;;;;5.60;5.07;;;21.90;47.30;;;;;;5053114;28;20308;-84
2022/04/12 09:26:33;;;;;;;5.00;4.53;;;22.40;48.00;;;;;;5071660;28;20197;-84
2022/04/12 09:29:02;;;;;;;5.15;4.65;;;23.10;47.30;;;;;;5073012;28;20272;-84
2022/04/12 09:31:33;;;;;;;4.95;4.55;;;23.60;46.30;;;;;;5073139;28;20205;-84
2022/04/12 09:34:04;;;;;;;5.00;4.57;;;23.60;45.60;;;;;;5073166;28;20224;-83
2022/04/12 09:36:34;;;;;;;4.53;4.13;;;23.80;45.80;;;;;;5072900;28;20221;-84
2022/04/12 09:39:04;;;;;;;6.53;5.65;;;23.50;46.20;;;;;;5073097;28;20258;-84
2022/04/12 09:41:32;;;;;;;5.45;4.35;;;23.50;46.80;;;;;;5072614;28;20201;-84
2022/04/12 09:44:08;;;;;;;5.32;4.38;;;23.60;46.10;;;;;;5073050;28;20216;-84
2022/04/12 09:46:38;;;;;;;5.43;4.65;;;23.70;45.70;;;;;;5072970;28;20201;-84
2022/04/12 09:49:08;;;;;;;5.43;4.90;;;23.60;45.80;;;;;;5067694;28;20261;-84
2022/04/12 09:51:38;;;;;;;5.18;4.30;;;24.20;46.00;;;;;;5052684;28;20228;-83
2022/04/12 09:54:11;;;;;;;4.78;4.38;;;24.10;45.30;;;;;;5053050;28;20222;-85
2022/04/12 09:56:39;;;;;;;4.85;4.45;;;23.90;45.10;;;;;;5053089;28;20210;-84
2022/04/12 09:59:13;;;;;;;7.05;5.38;;;24.10;46.00;;;;;;5055977;28;20277;-83
2022/04/12 10:01:42;;;;;;;4.72;4.28;;;24.20;45.90;;;;;;5052450;28;20201;-83
2022/04/12 10:04:15;;;;;;;5.57;4.40;;;24.10;45.00;;;;;;5052020;28;20294;-82
2022/04/12 10:06:44;;;;;;;4.90;4.40;;;24.10;45.60;;;;;;5053632;28;20212;-83
2022/04/12 10:09:14;;;;;;;4.78;4.30;;;24.10;45.60;;;;;;5055938;28;20293;-82
2022/04/12 10:11:43;;;;;;;6.22;5.03;;;23.70;44.80;;;;;;5055665;28;20260;-83
2022/04/12 10:14:12;;;;;;;5.03;3.83;;;22.60;45.30;;;;;;5055576;28;20289;-83
2022/04/12 10:16:42;;;;;;;4.95;4.55;;;22.50;46.80;;;;;;5055155;28;20256;-83
2022/04/12 10:19:12;;;;;;;4.57;4.15;;;22.80;46.30;;;;;;5055976;28;20206;-83
2022/04/12 10:21:41;;;;;;;5.07;4.57;;;22.80;46.80;;;;;;5055421;28;20263;-83
2022/04/12 10:24:12;;;;;;;5.93;5.00;;;23.30;46.50;;;;;;5055241;28;20371;-83
2022/04/12 10:26:44;;;;;;;5.28;4.45;;;23.70;47.50;;;;;;5055424;28;20229;-83
2022/04/12 10:29:13;;;;;;;4.50;4.10;;;23.70;45.70;;;;;;5055709;28;20276;-82
2022/04/12 10:31:55;;;;;;;4.53;4.13;;;23.00;47.10;;;;;;5054817;28;20205;-82
2022/04/12 10:35:00;;;;;;;5.00;4.60;;;22.70;46.00;;;;;;5054776;28;20201;-82
2022/04/12 10:37:29;;;;;;;5.03;4.57;;;22.70;47.70;;;;;;5055047;28;20230;-82
2022/04/12 10:40:19;;;;;;;7.63;4.82;;;23.20;46.60;;;;;;5055246;28;20217;-82
2022/04/12 10:42:56;;;;;;;5.97;5.07;;;23.60;45.90;;;;;;5055249;28;20221;-82
2022/04/12 10:45:32;;;;;;;6.22;5.13;;;23.60;46.20;;;;;;5055485;28;20198;-82
2022/04/12 10:48:07;;;;;;;4.32;3.92;;;23.80;45.10;;;;;;5055091;28;20273;-82
2022/04/12 10:50:43;;;;;;;5.30;4.80;;;23.20;45.20;;;;;;5054826;28;20197;-82
2022/04/12 10:53:12;;;;;;;4.78;4.35;;;22.50;44.80;;;;;;5054706;28;20256;-82
2022/04/12 10:55:44;;;;;;;4.60;4.20;;;22.30;47.10;;;;;;5054597;28;20305;-83
2022/04/12 10:58:14;;;;;;;4.45;4.05;;;22.50;47.80;;;;;;5055341;28;20224;-83
2022/04/12 11:00:43;;;;;;;5.10;4.65;;;22.90;46.70;;;;;;5054449;28;20233;-83
2022/04/12 11:03:12;;;;;;;6.05;4.60;;;23.40;47.60;;;;;;5067450;28;20226;-82
2022/04/12 11:35:59;;;;;;;5.65;4.93;;;22.80;46.30;;;;;;4948592;29;20215;-85
2022/04/12 11:46:09;;;;;;;5.43;4.03;;;23.70;46.50;;;;;;4970762;28;20192;-87
2022/04/12 11:51:22;;;;;;;5.18;4.00;;;24.30;47.80;;;;;;5030932;28;20204;-84
2022/04/12 11:53:50;;;;;;;5.13;4.72;;;24.30;45.30;;;;;;5020093;28;20223;-84
2022/04/12 11:56:18;;;;;;;4.13;3.78;;;24.10;46.00;;;;;;5027314;28;20261;-82
2022/04/12 11:58:47;;;;;;;5.93;5.22;;;24.40;45.80;;;;;;5033655;28;20229;-84
2022/04/12 12:01:30;;;;;;;22.25;4.82;;;24.20;46.40;;;;;;5033032;28;20308;-80
2022/04/12 12:04:06;;;;;;;4.53;4.07;;;24.20;48.00;;;;;;5033854;28;20233;-79
2022/04/12 12:06:34;;;;;;;5.13;3.88;;;24.20;47.00;;;;;;5033270;28;20264;-82
2022/04/12 12:09:03;;;;;;;4.55;3.92;;;24.30;45.60;;;;;;5032930;28;20233;-79
2022/04/12 12:11:31;;;;;;;4.65;4.25;;;24.50;47.00;;;;;;5033004;28;20297;-82
2022/04/12 12:13:59;;;;;;;5.22;3.95;;;24.50;45.40;;;;;;5033043;28;20226;-82
2022/04/12 12:16:29;;;;;;;6.13;4.63;;;24.40;45.50;;;;;;5035934;28;20261;-81
2022/04/12 12:18:57;;;;;;;4.70;4.20;;;23.90;43.90;;;;;;5033202;28;20292;-78
2022/04/12 12:21:31;;;;;;;4.15;3.83;;;23.90;47.10;;;;;;5033123;28;20285;-81
2022/04/12 12:24:00;;;;;;;4.53;4.13;;;24.00;45.80;;;;;;5032135;28;20252;-82
2022/04/12 12:26:29;;;;;;;4.20;3.80;;;23.70;44.70;;;;;;5028518;28;20198;-83
2022/04/12 12:28:58;;;;;;;4.80;4.38;;;23.30;45.60;;;;;;5032294;28;20224;-79
2022/04/12 12:31:27;;;;;;;5.55;4.53;;;23.10;43.90;;;;;;5033030;28;20206;-79
2022/04/12 12:33:57;;;;;;;4.60;4.20;;;23.00;46.20;;;;;;5032867;28;20234;-80
2022/04/12 12:36:26;;;;;;;5.80;4.05;;;23.00;43.40;;;;;;5032754;28;20226;-82
2022/04/12 12:38:54;;;;;;;5.00;4.50;;;23.00;45.50;;;;;;5032323;28;20214;-76
2022/04/12 12:41:27;;;;;;;6.45;5.28;;;23.10;44.60;;;;;;5032262;28;20234;-76
2022/04/12 12:43:57;;;;;;;3.78;3.40;;;22.80;44.60;;;;;;5032329;28;20222;-76
2022/04/12 12:46:26;;;;;;;5.00;4.55;;;22.60;45.90;;;;;;5032465;28;20259;-80
2022/04/12 12:49:12;;;;;;;7.47;5.03;;;22.50;46.10;;;;;;5032787;28;20210;-76
2022/04/12 12:51:41;;;;;;;4.57;4.18;;;22.40;45.30;;;;;;5032074;28;20266;-75
2022/04/12 12:54:14;;;;;;;8.40;4.80;;;22.20;45.30;;;;;;5032290;28;20226;-71
2022/04/12 12:56:46;;;;;;;6.18;4.93;;;22.10;44.70;;;;;;5032364;28;20276;-80
2022/04/12 12:59:18;;;;;;;8.20;4.65;;;22.10;44.20;;;;;;5032482;28;20265;-77
2022/04/12 13:01:48;;;;;;;6.07;4.43;;;22.00;44.90;;;;;;5031686;28;20297;-78
2022/04/12 13:04:25;;;;;;;6.75;4.85;;;21.90;44.10;;;;;;5032431;28;20210;-78
2022/04/12 13:07:06;;;;;;;4.90;4.47;;;21.90;44.50;;;;;;5032068;28;20285;-84
2022/04/12 13:10:32;;;;;;;6.28;4.80;;;21.90;44.90;;;;;;5032340;28;20285;-88
2022/04/12 13:13:10;;;;;;;5.82;4.60;;;21.80;46.40;;;;;;4932414;29;20229;-83
2022/04/12 13:15:40;;;;;;;5.13;4.22;;;22.10;45.50;;;;;;4946117;28;20201;-84
2022/04/12 13:18:09;;;;;;;7.00;4.88;;;22.10;44.10;;;;;;5032047;28;20226;-83
2022/04/12 13:20:39;;;;;;;5.38;4.78;;;21.90;44.90;;;;;;5031269;28;20194;-82
2022/04/12 13:23:16;;;;;;;6.82;4.70;;;21.80;44.20;;;;;;5032414;28;20323;-83
2022/04/12 13:25:44;;;;;;;6.55;4.50;;;21.90;44.40;;;;;;5012728;28;20213;-83
2022/04/12 13:28:14;;;;;;;5.72;4.97;;;22.00;44.60;;;;;;5031642;28;20232;-88
2022/04/12 13:30:46;;;;;;;7.10;5.18;;;22.00;44.80;;;;;;5032152;28;20198;-77
2022/04/12 13:33:14;;;;;;;5.70;4.75;;;22.00;45.50;;;;;;5031383;28;20226;-87
2022/04/12 13:35:44;;;;;;;5.45;5.00;;;22.20;45.80;;;;;;5031477;28;20270;-84
2022/04/12 13:38:13;;;;;;;4.97;4.53;;;22.20;45.50;;;;;;5031774;28;20238;-85
2022/04/12 13:40:41;;;;;;;5.03;4.57;;;21.90;44.00;;;;;;5033220;28;20214;-83
2022/04/12 13:43:10;;;;;;;5.10;4.63;;;21.70;45.90;;;;;;5036017;28;20230;-83
2022/04/12 13:45:40;;;;;;;5.70;4.93;;;21.60;46.00;;;;;;5035584;28;20256;-84
2022/04/12 13:48:09;;;;;;;4.95;4.45;;;21.70;45.80;;;;;;5036279;28;20210;-88